sensor_id;sensor_type;location;lat;lon;timestamp;pressure;altitude;pressure_sealevel;temperature;humidity
48015;BME280;33780;51.034;7.120;2023-01-29T00:01:15;102245.63;;;-1.09;68.13
48015;BME280;33780;51.034;7.120;2023-01-29T00:03:40;102237.75;;;-1.09;67.96
48015;BME280;33780;51.034;7.120;2023-01-29T00:06:07;102233.41;;;-1.11;68.04
48015;BME280;33780;51.034;7.120;2023-01-29T00:08:36;102238.66;;;-1.13;67.83
48015;BME280;33780;51.034;7.120;2023-01-29T00:11:03;102234.31;;;-1.14;67.58
48015;BME280;33780;51.034;7.120;2023-01-29T00:13:29;102239.56;;;-1.14;67.98
48015;BME280;33780;51.034;7.120;2023-01-29T00:15:56;102237.84;;;-1.16;67.88
48015;BME280;33780;51.034;7.120;2023-01-29T00:18:22;102236.13;;;-1.17;67.53
48015;BME280;33780;51.034;7.120;2023-01-29T00:20:47;102237.00;;;-1.18;68.05
48015;BME280;33780;51.034;7.120;2023-01-29T00:23:13;102218.66;;;-1.20;67.83
48015;BME280;33780;51.034;7.120;2023-01-29T00:25:39;102215.16;;;-1.20;67.97
48015;BME280;33780;51.034;7.120;2023-01-29T00:28:05;102225.69;;;-1.22;68.04
48015;BME280;33780;51.034;7.120;2023-01-29T00:30:30;102223.97;;;-1.25;67.66
48015;BME280;33780;51.034;7.120;2023-01-29T00:32:56;102215.22;;;-1.27;67.81
48015;BME280;33780;51.034;7.120;2023-01-29T00:35:22;102212.59;;;-1.28;67.38
48015;BME280;33780;51.034;7.120;2023-01-29T00:37:47;102217.00;;;-1.29;68.17
48015;BME280;33780;51.034;7.120;2023-01-29T00:40:12;102215.25;;;-1.30;68.04
48015;BME280;33780;51.034;7.120;2023-01-29T00:42:38;102206.53;;;-1.32;68.12
48015;BME280;33780;51.034;7.120;2023-01-29T00:45:22;102198.69;;;-1.33;67.91
48015;BME280;33780;51.034;7.120;2023-01-29T00:47:47;102194.31;;;-1.34;67.74
48015;BME280;33780;51.034;7.120;2023-01-29T00:50:12;102189.09;;;-1.36;67.58
48015;BME280;33780;51.034;7.120;2023-01-29T00:52:38;102199.63;;;-1.37;67.89
48015;BME280;33780;51.034;7.120;2023-01-29T00:55:08;102205.75;;;-1.38;67.78
48015;BME280;33780;51.034;7.120;2023-01-29T00:57:34;102204.88;;;-1.39;68.23
48015;BME280;33780;51.034;7.120;2023-01-29T01:00:00;102197.91;;;-1.40;67.63
48015;BME280;33780;51.034;7.120;2023-01-29T01:02:27;102204.03;;;-1.41;68.04
48015;BME280;33780;51.034;7.120;2023-01-29T01:05:13;102206.69;;;-1.42;67.97
48015;BME280;33780;51.034;7.120;2023-01-29T01:07:43;102202.31;;;-1.43;67.79
48015;BME280;33780;51.034;7.120;2023-01-29T01:10:13;102197.94;;;-1.44;67.79
48015;BME280;33780;51.034;7.120;2023-01-29T01:12:55;102204.06;;;-1.45;67.99
48015;BME280;33780;51.034;7.120;2023-01-29T01:15:22;102204.97;;;-1.48;67.97
48015;BME280;33780;51.034;7.120;2023-01-29T01:17:53;102209.38;;;-1.50;67.83
48015;BME280;33780;51.034;7.120;2023-01-29T01:20:19;102205.91;;;-1.50;68.16
48015;BME280;33780;51.034;7.120;2023-01-29T01:22:45;102198.91;;;-1.52;67.69
48015;BME280;33780;51.034;7.120;2023-01-29T01:25:10;102198.94;;;-1.53;67.58
48015;BME280;33780;51.034;7.120;2023-01-29T01:27:35;102199.81;;;-1.54;67.85
48015;BME280;33780;51.034;7.120;2023-01-29T01:30:10;102196.34;;;-1.56;67.71
48015;BME280;33780;51.034;7.120;2023-01-29T01:32:35;102204.25;;;-1.58;67.65
48015;BME280;33780;51.034;7.120;2023-01-29T01:35:01;102206.88;;;-1.59;67.56
48015;BME280;33780;51.034;7.120;2023-01-29T01:37:26;102214.78;;;-1.61;67.73
48015;BME280;33780;51.034;7.120;2023-01-29T01:39:51;102217.41;;;-1.61;67.77
48015;BME280;33780;51.034;7.120;2023-01-29T01:42:22;102209.53;;;-1.62;67.88
48015;BME280;33780;51.034;7.120;2023-01-29T01:47:33;102212.22;;;-1.67;68.16
48015;BME280;33780;51.034;7.120;2023-01-29T01:50:04;102213.06;;;-1.66;67.92
48015;BME280;33780;51.034;7.120;2023-01-29T01:52:32;102206.09;;;-1.67;67.84
48015;BME280;33780;51.034;7.120;2023-01-29T01:54:59;102200.84;;;-1.67;67.77
48015;BME280;33780;51.034;7.120;2023-01-29T01:57:26;102194.75;;;-1.69;67.69
48015;BME280;33780;51.034;7.120;2023-01-29T01:59:59;102195.63;;;-1.70;67.54
48015;BME280;33780;51.034;7.120;2023-01-29T02:02:34;102180.78;;;-1.71;67.65
48015;BME280;33780;51.034;7.120;2023-01-29T02:05:18;102174.69;;;-1.73;67.81
48015;BME280;33780;51.034;7.120;2023-01-29T02:08:02;102168.59;;;-1.75;67.31
48015;BME280;33780;51.034;7.120;2023-01-29T02:10:47;102169.50;;;-1.78;67.58
48015;BME280;33780;51.034;7.120;2023-01-29T02:13:14;102177.38;;;-1.79;67.52
48015;BME280;33780;51.034;7.120;2023-01-29T02:15:43;102170.38;;;-1.80;67.68
48015;BME280;33780;51.034;7.120;2023-01-29T02:18:11;102174.75;;;-1.81;67.89
48015;BME280;33780;51.034;7.120;2023-01-29T02:20:41;102189.63;;;-1.82;67.93
48015;BME280;33780;51.034;7.120;2023-01-29T02:26:08;102194.03;;;-1.85;67.74
48015;BME280;33780;51.034;7.120;2023-01-29T02:31:53;102189.72;;;-1.89;67.63
48015;BME280;33780;51.034;7.120;2023-01-29T02:36:59;102202.00;;;-1.91;68.00
48015;BME280;33780;51.034;7.120;2023-01-29T02:39:36;102202.00;;;-1.93;67.82
48015;BME280;33780;51.034;7.120;2023-01-29T02:45:12;102194.16;;;-1.94;67.53
48015;BME280;33780;51.034;7.120;2023-01-29T02:47:57;102206.44;;;-1.96;67.93
48015;BME280;33780;51.034;7.120;2023-01-29T02:53:21;102211.69;;;-1.99;67.89
48015;BME280;33780;51.034;7.120;2023-01-29T02:56:17;102213.44;;;-2.00;67.49
48015;BME280;33780;51.034;7.120;2023-01-29T02:58:54;102207.31;;;-2.00;67.99
48015;BME280;33780;51.034;7.120;2023-01-29T03:01:35;102220.44;;;-2.02;67.74
48015;BME280;33780;51.034;7.120;2023-01-29T03:04:08;102218.72;;;-2.04;67.63
48015;BME280;33780;51.034;7.120;2023-01-29T03:06:38;102223.09;;;-2.05;67.65
48015;BME280;33780;51.034;7.120;2023-01-29T03:09:21;102228.38;;;-2.06;68.03
48015;BME280;33780;51.034;7.120;2023-01-29T03:11:51;102232.72;;;-2.05;67.74
48015;BME280;33780;51.034;7.120;2023-01-29T03:14:22;102232.75;;;-2.07;68.03
48015;BME280;33780;51.034;7.120;2023-01-29T03:16:51;102227.50;;;-2.07;67.67
48015;BME280;33780;51.034;7.120;2023-01-29T03:19:33;102207.41;;;-2.08;67.69
48015;BME280;33780;51.034;7.120;2023-01-29T03:22:03;102216.16;;;-2.09;67.63
48015;BME280;33780;51.034;7.120;2023-01-29T03:27:20;102207.44;;;-2.11;67.62
48015;BME280;33780;51.034;7.120;2023-01-29T03:30:08;102213.59;;;-2.15;67.58
48015;BME280;33780;51.034;7.120;2023-01-29T03:32:54;102212.69;;;-2.16;67.94
48015;BME280;33780;51.034;7.120;2023-01-29T03:35:24;102200.47;;;-2.17;67.90
48015;BME280;33780;51.034;7.120;2023-01-29T03:38:01;102195.22;;;-2.17;68.27
48015;BME280;33780;51.034;7.120;2023-01-29T03:40:35;102197.00;;;-2.17;67.98
48015;BME280;33780;51.034;7.120;2023-01-29T03:43:11;102201.38;;;-2.18;67.56
48015;BME280;33780;51.034;7.120;2023-01-29T03:45:52;102197.88;;;-2.20;68.00
48015;BME280;33780;51.034;7.120;2023-01-29T03:48:34;102210.13;;;-2.20;68.03
48015;BME280;33780;51.034;7.120;2023-01-29T03:54:14;102209.28;;;-2.24;67.95
48015;BME280;33780;51.034;7.120;2023-01-29T03:59:32;102220.69;;;-2.26;67.98
48015;BME280;33780;51.034;7.120;2023-01-29T04:02:04;102228.56;;;-2.28;67.69
48015;BME280;33780;51.034;7.120;2023-01-29T04:04:36;102222.47;;;-2.30;68.14
48015;BME280;33780;51.034;7.120;2023-01-29T04:09:50;102216.38;;;-2.32;68.10
48015;BME280;33780;51.034;7.120;2023-01-29T04:12:23;102210.25;;;-2.32;68.16
48015;BME280;33780;51.034;7.120;2023-01-29T04:14:52;102204.16;;;-2.33;67.95
48015;BME280;33780;51.034;7.120;2023-01-29T04:17:21;102214.63;;;-2.33;68.01
48015;BME280;33780;51.034;7.120;2023-01-29T04:19:48;102198.03;;;-2.33;67.68
48015;BME280;33780;51.034;7.120;2023-01-29T04:22:47;102188.41;;;-2.36;67.95
48015;BME280;33780;51.034;7.120;2023-01-29T04:25:15;102187.56;;;-2.38;67.86
48015;BME280;33780;51.034;7.120;2023-01-29T04:27:47;102189.31;;;-2.38;67.97
48015;BME280;33780;51.034;7.120;2023-01-29T04:30:34;102178.84;;;-2.40;67.81
48015;BME280;33780;51.034;7.120;2023-01-29T04:44:14;102172.81;;;-2.48;67.95
48015;BME280;33780;51.034;7.120;2023-01-29T04:49:31;102180.69;;;-2.50;68.04
48015;BME280;33780;51.034;7.120;2023-01-29T04:57:22;102173.72;;;-2.49;67.87
48015;BME280;33780;51.034;7.120;2023-01-29T05:00:05;102167.59;;;-2.48;68.12
48015;BME280;33780;51.034;7.120;2023-01-29T05:02:36;102149.25;;;-2.50;68.08
48015;BME280;33780;51.034;7.120;2023-01-29T05:05:02;102141.38;;;-2.48;68.03
48015;BME280;33780;51.034;7.120;2023-01-29T05:07:31;102150.13;;;-2.49;67.74
48015;BME280;33780;51.034;7.120;2023-01-29T05:09:59;102151.88;;;-2.50;67.89
48015;BME280;33780;51.034;7.120;2023-01-29T05:12:27;102154.50;;;-2.50;67.84
48015;BME280;33780;51.034;7.120;2023-01-29T05:14:55;102151.91;;;-2.51;67.90
48015;BME280;33780;51.034;7.120;2023-01-29T05:17:24;102153.63;;;-2.52;67.94
48015;BME280;33780;51.034;7.120;2023-01-29T05:19:49;102154.50;;;-2.53;68.03
48015;BME280;33780;51.034;7.120;2023-01-29T05:22:16;102149.25;;;-2.53;68.09
48015;BME280;33780;51.034;7.120;2023-01-29T05:24:43;102151.88;;;-2.53;67.98
48015;BME280;33780;51.034;7.120;2023-01-29T05:27:16;102144.03;;;-2.54;68.10
48015;BME280;33780;51.034;7.120;2023-01-29T05:30:01;102142.28;;;-2.54;68.11
48015;BME280;33780;51.034;7.120;2023-01-29T05:32:27;102134.41;;;-2.54;67.65
48015;BME280;33780;51.034;7.120;2023-01-29T05:34:52;102130.91;;;-2.53;68.28
48015;BME280;33780;51.034;7.120;2023-01-29T05:37:18;102131.78;;;-2.54;67.79
48015;BME280;33780;51.034;7.120;2023-01-29T05:39:43;102127.44;;;-2.55;67.78
48015;BME280;33780;51.034;7.120;2023-01-29T05:42:08;102136.19;;;-2.57;67.84
48015;BME280;33780;51.034;7.120;2023-01-29T05:44:34;102135.34;;;-2.58;67.83
48015;BME280;33780;51.034;7.120;2023-01-29T05:46:59;102129.22;;;-2.57;68.31
48015;BME280;33780;51.034;7.120;2023-01-29T05:49:26;102126.59;;;-2.57;68.13
48015;BME280;33780;51.034;7.120;2023-01-29T05:51:52;102130.97;;;-2.57;68.06
48015;BME280;33780;51.034;7.120;2023-01-29T05:54:18;102131.84;;;-2.57;67.93
48015;BME280;33780;51.034;7.120;2023-01-29T05:56:43;102133.59;;;-2.57;68.15
48015;BME280;33780;51.034;7.120;2023-01-29T05:59:09;102137.94;;;-2.58;68.02
48015;BME280;33780;51.034;7.120;2023-01-29T06:01:34;102135.34;;;-2.59;68.23
48015;BME280;33780;51.034;7.120;2023-01-29T06:04:26;102144.09;;;-2.60;68.77
48015;BME280;33780;51.034;7.120;2023-01-29T06:06:59;102142.34;;;-2.60;68.13
48015;BME280;33780;51.034;7.120;2023-01-29T06:09:29;102146.69;;;-2.59;68.04
48015;BME280;33780;51.034;7.120;2023-01-29T06:11:54;102148.44;;;-2.59;68.54
48015;BME280;33780;51.034;7.120;2023-01-29T06:14:19;102143.19;;;-2.58;68.68
48015;BME280;33780;51.034;7.120;2023-01-29T06:16:44;102153.69;;;-2.58;68.17
48015;BME280;33780;51.034;7.120;2023-01-29T06:19:26;102150.22;;;-2.60;68.45
48015;BME280;33780;51.034;7.120;2023-01-29T06:22:02;102150.22;;;-2.60;68.33
48015;BME280;33780;51.034;7.120;2023-01-29T06:24:30;102146.72;;;-2.60;68.57
48015;BME280;33780;51.034;7.120;2023-01-29T06:26:57;102144.97;;;-2.60;68.49
48015;BME280;33780;51.034;7.120;2023-01-29T06:29:22;102145.84;;;-2.59;68.72
48015;BME280;33780;51.034;7.120;2023-01-29T06:31:48;102147.59;;;-2.60;68.79
48015;BME280;33780;51.034;7.120;2023-01-29T06:34:13;102164.19;;;-2.59;68.29
48015;BME280;33780;51.034;7.120;2023-01-29T06:36:38;102163.28;;;-2.58;68.07
48015;BME280;33780;51.034;7.120;2023-01-29T06:39:11;102174.66;;;-2.59;68.44
48015;BME280;33780;51.034;7.120;2023-01-29T06:41:40;102167.66;;;-2.59;68.35
48015;BME280;33780;51.034;7.120;2023-01-29T06:44:16;102188.63;;;-2.59;68.68
48015;BME280;33780;51.034;7.120;2023-01-29T06:47:02;102194.72;;;-2.57;68.71
48015;BME280;33780;51.034;7.120;2023-01-29T06:49:41;102198.22;;;-2.56;69.11
48015;BME280;33780;51.034;7.120;2023-01-29T06:52:18;102199.94;;;-2.55;68.89
48015;BME280;33780;51.034;7.120;2023-01-29T06:55:01;102202.56;;;-2.55;68.75
48015;BME280;33780;51.034;7.120;2023-01-29T06:57:28;102193.81;;;-2.54;69.01
48015;BME280;33780;51.034;7.120;2023-01-29T06:59:54;102196.44;;;-2.54;69.08
48015;BME280;33780;51.034;7.120;2023-01-29T07:02:43;102205.16;;;-2.52;68.69
48015;BME280;33780;51.034;7.120;2023-01-29T07:05:11;102188.56;;;-2.53;69.03
48015;BME280;33780;51.034;7.120;2023-01-29T07:07:39;102187.69;;;-2.50;68.98
48015;BME280;33780;51.034;7.120;2023-01-29T07:10:07;102184.22;;;-2.51;69.25
48015;BME280;33780;51.034;7.120;2023-01-29T07:15:27;102189.44;;;-2.49;69.11
48015;BME280;33780;51.034;7.120;2023-01-29T07:18:08;102188.56;;;-2.48;69.35
48015;BME280;33780;51.034;7.120;2023-01-29T07:20:40;102184.19;;;-2.48;69.28
48015;BME280;33780;51.034;7.120;2023-01-29T07:23:14;102192.88;;;-2.46;69.21
48015;BME280;33780;51.034;7.120;2023-01-29T07:25:45;102189.38;;;-2.43;69.54
48015;BME280;33780;51.034;7.120;2023-01-29T07:28:14;102191.09;;;-2.42;69.36
48015;BME280;33780;51.034;7.120;2023-01-29T07:30:39;102189.31;;;-2.38;69.52
48015;BME280;33780;51.034;7.120;2023-01-29T07:33:40;102191.03;;;-2.34;69.54
48015;BME280;33780;51.034;7.120;2023-01-29T07:36:24;102191.91;;;-2.32;69.61
48015;BME280;33780;51.034;7.120;2023-01-29T07:38:55;102191.00;;;-2.28;69.71
48015;BME280;33780;51.034;7.120;2023-01-29T07:41:27;102194.44;;;-2.25;69.73
48015;BME280;33780;51.034;7.120;2023-01-29T07:44:21;102183.06;;;-2.24;69.81
48015;BME280;33780;51.034;7.120;2023-01-29T07:46:49;102194.41;;;-2.20;69.71
48015;BME280;33780;51.034;7.120;2023-01-29T07:49:25;102187.38;;;-2.17;69.95
48015;BME280;33780;51.034;7.120;2023-01-29T07:51:50;102193.50;;;-2.15;70.62
48015;BME280;33780;51.034;7.120;2023-01-29T07:54:15;102189.94;;;-2.10;69.99
48015;BME280;33780;51.034;7.120;2023-01-29T07:56:41;102174.19;;;-2.07;70.27
48015;BME280;33780;51.034;7.120;2023-01-29T07:59:06;102165.38;;;-2.03;70.54
48015;BME280;33780;51.034;7.120;2023-01-29T08:01:31;102162.72;;;-2.00;69.97
48015;BME280;33780;51.034;7.120;2023-01-29T08:03:57;102159.19;;;-1.98;70.37
48015;BME280;33780;51.034;7.120;2023-01-29T08:06:22;102170.56;;;-1.94;70.50
48015;BME280;33780;51.034;7.120;2023-01-29T08:08:47;102175.78;;;-1.93;70.35
48015;BME280;33780;51.034;7.120;2023-01-29T08:11:12;102174.84;;;-1.89;70.53
48015;BME280;33780;51.034;7.120;2023-01-29T08:13:39;102179.19;;;-1.86;70.67
48015;BME280;33780;51.034;7.120;2023-01-29T08:16:05;102181.78;;;-1.85;70.98
48015;BME280;33780;51.034;7.120;2023-01-29T08:18:30;102175.63;;;-1.82;70.96
48015;BME280;33780;51.034;7.120;2023-01-29T08:21:02;102172.13;;;-1.79;70.90
48015;BME280;33780;51.034;7.120;2023-01-29T08:23:27;102177.38;;;-1.78;71.07
48015;BME280;33780;51.034;7.120;2023-01-29T08:25:53;102179.09;;;-1.77;71.19
48015;BME280;33780;51.034;7.120;2023-01-29T08:28:18;102174.69;;;-1.75;71.30
48015;BME280;33780;51.034;7.120;2023-01-29T08:30:43;102169.44;;;-1.73;71.08
48015;BME280;33780;51.034;7.120;2023-01-29T08:33:09;102172.91;;;-1.71;71.10
48015;BME280;33780;51.034;7.120;2023-01-29T08:35:34;102171.13;;;-1.69;71.06
48015;BME280;33780;51.034;7.120;2023-01-29T08:38:01;102158.84;;;-1.67;71.28
48015;BME280;33780;51.034;7.120;2023-01-29T08:40:28;102163.16;;;-1.63;71.24
48015;BME280;33780;51.034;7.120;2023-01-29T08:43:03;102164.91;;;-1.61;71.38
48015;BME280;33780;51.034;7.120;2023-01-29T08:45:29;102166.63;;;-1.58;71.48
48015;BME280;33780;51.034;7.120;2023-01-29T08:47:54;102154.31;;;-1.55;71.56
48015;BME280;33780;51.034;7.120;2023-01-29T08:50:19;102162.16;;;-1.52;71.49
48015;BME280;33780;51.034;7.120;2023-01-29T08:52:45;102162.97;;;-1.48;71.44
48015;BME280;33780;51.034;7.120;2023-01-29T08:55:11;102152.44;;;-1.45;71.69
48015;BME280;33780;51.034;7.120;2023-01-29T08:57:37;102161.16;;;-1.41;71.39
48015;BME280;33780;51.034;7.120;2023-01-29T09:00:06;102158.50;;;-1.40;71.50
48015;BME280;33780;51.034;7.120;2023-01-29T09:02:33;102159.34;;;-1.36;71.69
48015;BME280;33780;51.034;7.120;2023-01-29T09:04:58;102159.28;;;-1.33;71.91
48015;BME280;33780;51.034;7.120;2023-01-29T09:07:24;102160.09;;;-1.30;71.72
48015;BME280;33780;51.034;7.120;2023-01-29T09:09:49;102160.06;;;-1.27;71.90
48015;BME280;33780;51.034;7.120;2023-01-29T09:12:14;102160.94;;;-1.25;72.27
48015;BME280;33780;51.034;7.120;2023-01-29T09:14:39;102164.41;;;-1.23;72.19
48015;BME280;33780;51.034;7.120;2023-01-29T09:17:05;102163.47;;;-1.18;72.11
48015;BME280;33780;51.034;7.120;2023-01-29T09:19:37;102154.66;;;-1.16;72.45
48015;BME280;33780;51.034;7.120;2023-01-29T09:22:03;102146.75;;;-1.13;72.42
48015;BME280;33780;51.034;7.120;2023-01-29T09:24:28;102132.66;;;-1.09;72.74
48015;BME280;33780;51.034;7.120;2023-01-29T09:26:54;102131.72;;;-1.03;72.51
48015;BME280;33780;51.034;7.120;2023-01-29T09:29:19;102130.75;;;-0.98;72.27
48015;BME280;33780;51.034;7.120;2023-01-29T09:31:44;102130.66;;;-0.92;72.63
48015;BME280;33780;51.034;7.120;2023-01-29T09:34:09;102125.31;;;-0.85;72.54
48015;BME280;33780;51.034;7.120;2023-01-29T09:36:42;102127.81;;;-0.78;72.48
48015;BME280;33780;51.034;7.120;2023-01-29T09:39:07;102126.84;;;-0.71;72.34
48015;BME280;33780;51.034;7.120;2023-01-29T09:41:47;102124.97;;;-0.64;72.86
48015;BME280;33780;51.034;7.120;2023-01-29T09:44:37;102116.94;;;-0.56;72.02
48015;BME280;33780;51.034;7.120;2023-01-29T09:47:14;102122.13;;;-0.52;72.25
48015;BME280;33780;51.034;7.120;2023-01-29T09:49:47;102125.53;;;-0.47;72.30
48015;BME280;33780;51.034;7.120;2023-01-29T09:52:18;102120.16;;;-0.41;72.39
48015;BME280;33780;51.034;7.120;2023-01-29T09:54:53;102108.69;;;-0.37;72.63
48015;BME280;33780;51.034;7.120;2023-01-29T09:57:29;102096.34;;;-0.32;72.40
48015;BME280;33780;51.034;7.120;2023-01-29T09:59:57;102093.63;;;-0.27;72.75
48015;BME280;33780;51.034;7.120;2023-01-29T10:02:40;102091.78;;;-0.23;72.62
48015;BME280;33780;51.034;7.120;2023-01-29T10:05:34;102089.06;;;-0.19;72.53
48015;BME280;33780;51.034;7.120;2023-01-29T10:08:23;102089.00;;;-0.14;72.23
48015;BME280;33780;51.034;7.120;2023-01-29T10:11:03;102081.88;;;-0.09;72.71
48015;BME280;33780;51.034;7.120;2023-01-29T10:14:30;102088.78;;;-0.05;72.77
48015;BME280;33780;51.034;7.120;2023-01-29T10:17:07;102086.06;;;-0.01;72.34
48015;BME280;33780;51.034;7.120;2023-01-29T10:23:14;102099.88;;;0.11;72.43
48015;BME280;33780;51.034;7.120;2023-01-29T10:25:41;102096.31;;;0.13;72.22
48015;BME280;33780;51.034;7.120;2023-01-29T10:28:22;102085.72;;;0.16;72.23
48015;BME280;33780;51.034;7.120;2023-01-29T10:30:53;102087.41;;;0.20;72.59
48015;BME280;33780;51.034;7.120;2023-01-29T10:33:47;102090.00;;;0.22;72.13
48015;BME280;33780;51.034;7.120;2023-01-29T10:36:18;102089.06;;;0.24;72.25
48015;BME280;33780;51.034;7.120;2023-01-29T10:38:46;102097.81;;;0.26;72.46
48015;BME280;33780;51.034;7.120;2023-01-29T10:41:26;102088.13;;;0.27;72.25
48015;BME280;33780;51.034;7.120;2023-01-29T10:46:36;102092.50;;;0.28;71.88
48015;BME280;33780;51.034;7.120;2023-01-29T10:49:28;102076.72;;;0.28;72.40
48015;BME280;33780;51.034;7.120;2023-01-29T10:52:09;102076.72;;;0.28;72.28
48015;BME280;33780;51.034;7.120;2023-01-29T11:00:18;102052.00;;;0.34;72.11
48015;BME280;33780;51.034;7.120;2023-01-29T11:02:47;102042.31;;;0.37;72.18
48015;BME280;33780;51.034;7.120;2023-01-29T11:05:25;102042.22;;;0.40;72.13
48015;BME280;33780;51.034;7.120;2023-01-29T11:08:19;102036.88;;;0.43;72.65
48015;BME280;33780;51.034;7.120;2023-01-29T11:11:13;102033.28;;;0.47;72.39
48015;BME280;33780;51.034;7.120;2023-01-29T11:13:52;102024.44;;;0.50;72.23
48015;BME280;33780;51.034;7.120;2023-01-29T11:16:19;102026.13;;;0.52;71.65
48015;BME280;33780;51.034;7.120;2023-01-29T11:18:56;102019.03;;;0.56;72.15
48015;BME280;33780;51.034;7.120;2023-01-29T11:21:22;102018.97;;;0.59;72.10
48015;BME280;33780;51.034;7.120;2023-01-29T11:23:49;102010.13;;;0.62;71.90
48015;BME280;33780;51.034;7.120;2023-01-29T11:26:20;102005.63;;;0.65;71.93
48015;BME280;33780;51.034;7.120;2023-01-29T11:28:48;102008.22;;;0.67;71.67
48015;BME280;33780;51.034;7.120;2023-01-29T11:31:16;102004.66;;;0.69;71.92
48015;BME280;33780;51.034;7.120;2023-01-29T11:33:52;102000.19;;;0.73;71.70
48015;BME280;33780;51.034;7.120;2023-01-29T11:36:29;102005.38;;;0.76;72.07
48015;BME280;33780;51.034;7.120;2023-01-29T11:39:17;102000.91;;;0.79;71.53
48015;BME280;33780;51.034;7.120;2023-01-29T11:41:52;101991.19;;;0.81;71.96
48015;BME280;33780;51.034;7.120;2023-01-29T11:49:40;101976.94;;;0.88;71.61
48015;BME280;33780;51.034;7.120;2023-01-29T11:52:09;101983.94;;;0.91;71.69
48015;BME280;33780;51.034;7.120;2023-01-29T11:55:00;101967.16;;;0.94;72.12
48015;BME280;33780;51.034;7.120;2023-01-29T11:57:49;101974.13;;;0.96;71.27
48015;BME280;33780;51.034;7.120;2023-01-29T12:00:22;101966.19;;;0.98;71.77
48015;BME280;33780;51.034;7.120;2023-01-29T12:06:00;101948.56;;;1.00;71.99
48015;BME280;33780;51.034;7.120;2023-01-29T12:08:38;101947.59;;;1.02;71.57
48015;BME280;33780;51.034;7.120;2023-01-29T12:11:13;101944.91;;;1.04;71.53
48015;BME280;33780;51.034;7.120;2023-01-29T12:13:41;101949.25;;;1.06;71.54
48015;BME280;33780;51.034;7.120;2023-01-29T12:16:25;101939.56;;;1.08;71.49
48015;BME280;33780;51.034;7.120;2023-01-29T12:19:13;101933.31;;;1.11;71.45
48015;BME280;33780;51.034;7.120;2023-01-29T12:30:27;101897.00;;;1.20;71.63
48015;BME280;33780;51.034;7.120;2023-01-29T12:35:14;101878.41;;;1.25;71.32
48015;BME280;33780;51.034;7.120;2023-01-29T12:38:02;101867.00;;;1.25;71.23
48015;BME280;33780;51.034;7.120;2023-01-29T12:40:33;101859.03;;;1.28;71.31
48015;BME280;33780;51.034;7.120;2023-01-29T12:43:21;101856.31;;;1.31;71.20
48015;BME280;33780;51.034;7.120;2023-01-29T12:45:51;101838.63;;;1.34;71.40
48015;BME280;33780;51.034;7.120;2023-01-29T12:48:31;101835.94;;;1.36;71.41
48015;BME280;33780;51.034;7.120;2023-01-29T12:51:12;101827.00;;;1.40;71.41
48015;BME280;33780;51.034;7.120;2023-01-29T12:54:09;101820.78;;;1.42;71.71
48015;BME280;33780;51.034;7.120;2023-01-29T12:56:49;101820.75;;;1.44;71.45
48015;BME280;33780;51.034;7.120;2023-01-29T12:59:52;101825.06;;;1.46;70.42
48015;BME280;33780;51.034;7.120;2023-01-29T13:05:02;101819.69;;;1.49;70.92
48015;BME280;33780;51.034;7.120;2023-01-29T13:07:32;101818.78;;;1.50;70.98
48015;BME280;33780;51.034;7.120;2023-01-29T13:10:09;101816.03;;;1.54;71.41
48015;BME280;33780;51.034;7.120;2023-01-29T13:12:38;101806.34;;;1.54;71.22
48015;BME280;33780;51.034;7.120;2023-01-29T13:15:16;101797.53;;;1.55;71.28
48015;BME280;33780;51.034;7.120;2023-01-29T13:17:52;101800.13;;;1.57;71.02
48015;BME280;33780;51.034;7.120;2023-01-29T13:20:23;101797.44;;;1.58;71.01
48015;BME280;33780;51.034;7.120;2023-01-29T13:22:51;101800.88;;;1.60;70.86
48015;BME280;33780;51.034;7.120;2023-01-29T13:25:19;101786.78;;;1.61;71.22
48015;BME280;33780;51.034;7.120;2023-01-29T13:27:45;101772.66;;;1.64;70.76
48015;BME280;33780;51.034;7.120;2023-01-29T13:30:29;101775.19;;;1.67;70.82
48015;BME280;33780;51.034;7.120;2023-01-29T13:32:57;101774.22;;;1.69;71.12
48015;BME280;33780;51.034;7.120;2023-01-29T13:35:37;101768.03;;;1.70;70.40
48015;BME280;33780;51.034;7.120;2023-01-29T13:38:05;101770.63;;;1.72;70.59
48015;BME280;33780;51.034;7.120;2023-01-29T13:40:47;101766.19;;;1.72;70.71
48015;BME280;33780;51.034;7.120;2023-01-29T13:43:19;101762.59;;;1.75;71.04
48015;BME280;33780;51.034;7.120;2023-01-29T13:45:52;101766.84;;;1.79;71.19
48015;BME280;33780;51.034;7.120;2023-01-29T13:48:29;101761.63;;;1.77;70.71
48015;BME280;33780;51.034;7.120;2023-01-29T13:51:02;101757.16;;;1.79;70.74
48015;BME280;33780;51.034;7.120;2023-01-29T13:53:37;101745.66;;;1.82;70.99
48015;BME280;33780;51.034;7.120;2023-01-29T13:59:07;101751.75;;;1.84;70.41
48015;BME280;33780;51.034;7.120;2023-01-29T14:04:29;101750.78;;;1.87;70.94
48015;BME280;33780;51.034;7.120;2023-01-29T14:07:47;101752.56;;;1.86;70.86
48015;BME280;33780;51.034;7.120;2023-01-29T14:10:24;101748.16;;;1.87;70.40
48015;BME280;33780;51.034;7.120;2023-01-29T14:15:32;101754.28;;;1.87;70.17
48015;BME280;33780;51.034;7.120;2023-01-29T14:20:39;101749.81;;;1.89;70.18
48015;BME280;33780;51.034;7.120;2023-01-29T14:23:06;101755.09;;;1.89;70.68
48015;BME280;33780;51.034;7.120;2023-01-29T14:25:37;101753.25;;;1.91;70.42
48015;BME280;33780;51.034;7.120;2023-01-29T14:28:04;101751.50;;;1.92;70.42
48015;BME280;33780;51.034;7.120;2023-01-29T14:30:38;101747.13;;;1.91;70.32
48015;BME280;33780;51.034;7.120;2023-01-29T14:33:05;101744.47;;;1.91;70.51
48015;BME280;33780;51.034;7.120;2023-01-29T14:35:49;101743.63;;;1.90;70.29
48015;BME280;33780;51.034;7.120;2023-01-29T14:38:35;101744.44;;;1.92;70.67
48015;BME280;33780;51.034;7.120;2023-01-29T14:41:27;101744.44;;;1.92;70.32
48015;BME280;33780;51.034;7.120;2023-01-29T14:47:17;101743.56;;;1.92;70.23
48015;BME280;33780;51.034;7.120;2023-01-29T14:49:56;101739.16;;;1.92;70.07
48015;BME280;33780;51.034;7.120;2023-01-29T14:53:19;101738.28;;;1.92;70.12
48015;BME280;33780;51.034;7.120;2023-01-29T14:55:57;101746.22;;;1.92;70.22
48015;BME280;33780;51.034;7.120;2023-01-29T14:58:35;101745.34;;;1.91;70.37
48015;BME280;33780;51.034;7.120;2023-01-29T15:01:04;101740.97;;;1.90;70.68